createdAt,value
2018-04-18T00:02:13.206Z,13.00
2018-04-18T00:07:14.227Z,13.00
2018-04-18T00:12:15.954Z,12.70
2018-04-18T00:17:16.938Z,12.70
2018-04-18T00:22:17.926Z,12.60
2018-04-18T00:27:19.653Z,12.60
2018-04-18T00:32:20.622Z,12.50
2018-04-18T00:37:21.610Z,12.60
2018-04-18T00:42:23.342Z,12.50
2018-04-18T00:47:24.338Z,12.50
2018-04-18T00:52:26.118Z,12.40
2018-04-18T00:57:27.862Z,12.30
2018-04-18T01:02:28.849Z,12.30
2018-04-18T01:07:30.582Z,12.00
2018-04-18T01:12:31.577Z,12.00
2018-04-18T01:17:33.318Z,11.90
2018-04-18T01:22:34.319Z,11.90
2018-04-18T01:27:36.042Z,11.60
2018-04-18T01:32:37.058Z,11.60
2018-04-18T01:37:38.063Z,11.70
2018-04-18T01:42:39.078Z,11.50
2018-04-18T01:47:40.062Z,11.50
2018-04-18T01:52:41.054Z,11.50
2018-04-18T01:57:42.055Z,11.60
2018-04-18T02:02:43.038Z,11.60
2018-04-18T02:07:44.057Z,11.50
2018-04-18T02:12:45.773Z,11.30
2018-04-18T02:17:46.761Z,11.20
2018-04-18T02:22:47.741Z,11.20
2018-04-18T02:27:48.777Z,11.20
2018-04-18T02:32:50.536Z,11.20
2018-04-18T02:37:51.539Z,11.10
2018-04-18T02:42:52.542Z,11.10
2018-04-18T02:47:53.552Z,11.10
2018-04-18T02:52:54.730Z,10.80
2018-04-18T02:57:55.718Z,10.90
2018-04-18T03:02:56.749Z,10.80
2018-04-18T03:07:57.749Z,10.80
2018-04-18T03:12:58.737Z,10.70
2018-04-18T03:18:00.494Z,10.60
2018-04-18T03:23:02.239Z,10.50
2018-04-18T03:28:03.229Z,10.50
2018-04-18T03:33:04.212Z,10.50
2018-04-18T03:38:05.221Z,10.50
2018-04-18T03:43:06.221Z,10.40
2018-04-18T03:48:07.957Z,10.20
2018-04-18T03:53:08.938Z,10.10
2018-04-18T03:58:10.677Z,10.10
2018-04-18T04:03:12.463Z,10.00
2018-04-18T04:08:13.449Z,10.00
2018-04-18T04:13:15.217Z,9.90
2018-04-18T04:18:28.643Z,9.90
2018-04-18T04:29:06.497Z,9.70
2018-04-18T04:34:07.497Z,9.70
2018-04-18T04:39:08.513Z,9.70
2018-04-18T04:44:09.557Z,9.80
2018-04-18T04:49:10.637Z,9.80
2018-04-18T04:54:11.730Z,9.80
2018-04-18T04:59:12.848Z,9.90
2018-04-18T05:04:13.946Z,10.00
2018-04-18T05:09:15.718Z,10.10
2018-04-18T05:14:16.843Z,10.00
2018-04-18T05:19:17.877Z,10.20
2018-04-18T05:24:18.909Z,10.30
2018-04-18T05:29:19.937Z,10.80
2018-04-18T05:34:21.002Z,11.20
2018-04-18T05:39:22.072Z,11.50
2018-04-18T05:44:23.138Z,11.90
2018-04-18T05:49:24.905Z,12.20
2018-04-18T05:54:26.735Z,12.20
2018-04-18T05:59:27.767Z,12.20
2018-04-18T06:04:28.778Z,12.50
2018-04-18T06:09:29.773Z,12.90
2018-04-18T06:14:30.790Z,13.00
2018-04-18T06:19:31.789Z,13.20
2018-04-18T06:24:32.794Z,13.10
2018-04-18T06:29:33.794Z,13.30
2018-04-18T06:34:35.531Z,13.90
2018-04-18T06:39:37.286Z,14.10
2018-04-18T06:44:38.310Z,14.00
2018-04-18T06:49:39.318Z,14.10
2018-04-18T06:54:40.348Z,14.40
2018-04-18T06:59:41.338Z,14.70
2018-04-18T07:04:42.349Z,15.20
2018-04-18T07:09:43.342Z,15.30
2018-04-18T07:14:44.385Z,15.60
2018-04-18T07:19:45.373Z,16.00
2018-04-18T07:24:46.378Z,16.10
2018-04-18T07:29:48.128Z,17.00
2018-04-18T07:34:49.905Z,17.80
2018-04-18T07:39:51.640Z,17.70
2018-04-18T07:44:52.622Z,17.60
2018-04-18T07:49:53.662Z,17.70
2018-04-18T07:54:54.661Z,17.80
2018-04-18T07:59:56.387Z,18.90
2018-04-18T08:04:57.371Z,18.80
2018-04-18T08:09:58.373Z,19.10
2018-04-18T08:14:59.353Z,19.60
2018-04-18T08:20:00.329Z,20.10
2018-04-18T08:25:01.347Z,20.10
2018-04-18T08:30:02.362Z,20.40
2018-04-18T08:35:04.101Z,21.20
2018-04-18T08:40:05.107Z,21.20
2018-04-18T08:45:06.848Z,22.00
2018-04-18T08:50:07.850Z,21.90
2018-04-18T08:55:08.841Z,22.00
2018-04-18T09:00:09.839Z,22.40
2018-04-18T09:05:11.617Z,22.90
2018-04-18T09:10:12.611Z,22.90
2018-04-18T09:15:13.605Z,23.30
2018-04-18T09:20:14.602Z,23.70
2018-04-18T09:25:16.382Z,24.10
2018-04-18T09:30:18.117Z,24.80
2018-04-18T09:35:19.114Z,24.70
2018-04-18T09:40:20.858Z,25.20
2018-04-18T09:45:21.838Z,25.10
2018-04-18T09:50:23.578Z,24.90
2018-04-18T09:55:24.595Z,24.80
2018-04-18T10:00:31.627Z,24.90
2018-04-18T10:05:32.602Z,25.30
2018-04-18T10:10:33.640Z,25.70
2018-04-18T10:15:34.633Z,26.00
2018-04-18T10:20:35.613Z,25.80
2018-04-18T10:25:37.351Z,25.90
2018-04-18T10:30:38.339Z,25.90
2018-04-18T10:35:40.078Z,25.60
2018-04-18T10:40:41.065Z,25.60
2018-04-18T10:45:42.849Z,25.90
2018-04-18T10:50:44.571Z,25.60
2018-04-18T10:55:45.549Z,25.50
2018-04-18T11:00:47.378Z,24.90
2018-04-18T11:05:48.380Z,25.60
2018-04-18T11:10:49.376Z,25.60
2018-04-18T11:15:51.109Z,25.30
2018-04-18T11:20:52.090Z,25.20
2018-04-18T11:25:53.811Z,25.10
2018-04-18T11:30:54.809Z,25.10
2018-04-18T11:35:55.819Z,25.10
2018-04-18T11:40:56.849Z,25.30
2018-04-18T11:45:58.583Z,25.10
2018-04-18T11:50:59.571Z,25.00
2018-04-18T11:56:01.313Z,25.10
2018-04-18T12:01:02.317Z,25.10
2018-04-18T12:06:04.046Z,25.50
2018-04-18T12:11:05.061Z,25.50
2018-04-18T12:16:06.083Z,25.30
2018-04-18T12:21:07.082Z,25.40
2018-04-18T12:26:15.107Z,25.50
2018-04-18T12:31:16.112Z,25.40
2018-04-18T12:36:17.132Z,25.60
2018-04-18T12:41:18.131Z,25.50
2018-04-18T12:46:19.152Z,25.60
2018-04-18T12:51:20.140Z,25.70
2018-04-18T12:56:21.146Z,25.90
2018-04-18T13:01:22.114Z,25.70
2018-04-18T13:06:23.161Z,25.80
2018-04-18T13:11:24.098Z,25.80
2018-04-18T13:16:25.833Z,25.70
2018-04-18T13:21:26.813Z,25.70
2018-04-18T13:26:27.819Z,25.80
2018-04-18T13:31:28.829Z,25.70
2018-04-18T13:36:29.831Z,25.90
2018-04-18T13:41:30.822Z,25.90
2018-04-18T13:46:31.807Z,25.80
2018-04-18T13:51:32.803Z,25.80
2018-04-18T13:56:33.833Z,25.70
2018-04-18T14:01:35.570Z,25.90
2018-04-18T14:06:36.542Z,25.90
2018-04-18T14:11:37.530Z,25.90
2018-04-18T14:16:39.803Z,25.90
2018-04-18T14:21:41.747Z,25.80
2018-04-18T14:26:42.747Z,25.80
2018-04-18T14:31:44.482Z,25.80
2018-04-18T14:36:45.505Z,25.70
2018-04-18T14:41:46.491Z,25.70
2018-04-18T14:46:47.481Z,25.90
2018-04-18T14:51:48.465Z,25.80
2018-04-18T14:56:49.446Z,25.70
2018-04-18T15:01:50.433Z,25.70
2018-04-18T15:06:51.527Z,25.90
2018-04-18T15:11:53.271Z,25.80
2018-04-18T15:16:54.254Z,25.70
2018-04-18T15:21:55.992Z,25.80
2018-04-18T15:26:56.970Z,25.70
2018-04-18T15:31:57.951Z,25.70
2018-04-18T15:36:58.938Z,25.80
2018-04-18T15:41:59.962Z,25.60
2018-04-18T15:47:01.707Z,25.60
2018-04-18T15:52:02.702Z,25.60
2018-04-18T15:57:04.451Z,25.40
2018-04-18T16:02:05.443Z,25.30
2018-04-18T16:07:06.425Z,25.40
2018-04-18T16:12:07.397Z,25.40
2018-04-18T16:17:08.366Z,25.40
2018-04-18T16:22:09.391Z,25.30
2018-04-18T16:27:10.394Z,25.30
2018-04-18T16:32:11.435Z,25.30
2018-04-18T16:37:13.213Z,25.20
2018-04-18T16:42:14.219Z,25.10
2018-04-18T16:47:15.209Z,25.10
2018-04-18T16:52:16.193Z,25.10
2018-04-18T16:57:17.170Z,25.00
2018-04-18T17:02:18.929Z,24.80
2018-04-18T17:07:19.914Z,24.80
2018-04-18T17:12:21.633Z,24.70
2018-04-18T17:17:22.651Z,24.70
2018-04-18T17:22:24.389Z,24.50
2018-04-18T17:27:25.379Z,24.50
2018-04-18T17:32:27.099Z,24.40
2018-04-18T17:37:28.073Z,24.30
2018-04-18T17:42:29.074Z,24.30
2018-04-18T17:47:30.070Z,24.10
2018-04-18T17:52:31.053Z,24.00
2018-04-18T17:57:32.033Z,23.90
2018-04-18T18:02:33.794Z,23.70
2018-04-18T18:07:34.776Z,23.70
2018-04-18T18:12:36.497Z,23.40
2018-04-18T18:17:37.527Z,23.40
2018-04-18T18:22:38.536Z,23.30
2018-04-18T18:27:39.535Z,23.20
2018-04-18T18:32:40.518Z,23.00
2018-04-18T18:37:41.505Z,22.80
2018-04-18T18:42:42.499Z,22.50
2018-04-18T18:47:44.226Z,22.10
2018-04-18T18:52:45.242Z,22.00
2018-04-18T18:57:46.266Z,21.80
2018-04-18T19:02:48.608Z,21.60
2018-04-18T19:07:49.602Z,21.40
2018-04-18T19:12:50.622Z,21.10
2018-04-18T19:17:51.907Z,21.00
2018-04-18T19:22:53.216Z,20.70
2018-04-18T19:27:54.243Z,20.50
2018-04-18T19:32:55.254Z,20.40
2018-04-18T19:37:56.258Z,20.20
2018-04-18T19:42:57.277Z,20.10
2018-04-18T19:47:58.294Z,19.70
2018-04-18T19:52:59.302Z,19.50
2018-04-18T19:58:00.288Z,19.30
2018-04-18T20:03:01.290Z,19.30
2018-04-18T20:08:03.037Z,19.10
2018-04-18T20:13:04.050Z,19.00
2018-04-18T20:18:05.031Z,19.00
2018-04-18T20:23:06.030Z,18.80
2018-04-18T20:28:07.800Z,18.60
2018-04-18T20:33:08.762Z,18.50
2018-04-18T20:38:10.540Z,18.40
2018-04-18T20:43:12.270Z,18.30
2018-04-18T20:48:13.295Z,18.20
2018-04-18T20:53:14.313Z,18.20
2018-04-18T20:58:15.339Z,18.00
2018-04-18T21:03:16.343Z,17.90
2018-04-18T21:08:17.362Z,17.80
2018-04-18T21:13:18.349Z,17.70
2018-04-18T21:18:19.352Z,17.50
2018-04-18T21:23:20.382Z,17.50
2018-04-18T21:28:22.114Z,17.30
2018-04-18T21:33:23.131Z,17.30
2018-04-18T21:38:24.875Z,16.90
2018-04-18T21:43:25.902Z,16.90
2018-04-18T21:48:26.889Z,16.90
2018-04-18T21:53:27.875Z,16.40
2018-04-18T21:58:29.611Z,16.50
2018-04-18T22:03:30.599Z,16.50
2018-04-18T22:08:32.331Z,16.40
2018-04-18T22:13:33.315Z,16.40
2018-04-18T22:18:34.314Z,16.30
2018-04-18T22:23:35.309Z,16.30
2018-04-18T22:28:36.306Z,16.40
2018-04-18T22:33:38.049Z,16.50
2018-04-18T22:38:39.046Z,16.50
2018-04-18T22:43:40.038Z,16.40
2018-04-18T22:48:41.031Z,16.50
2018-04-18T22:53:42.029Z,16.40
2018-04-18T22:58:43.009Z,16.30
2018-04-18T23:03:44.017Z,16.40
2018-04-18T23:08:45.758Z,16.40
2018-04-18T23:13:46.738Z,16.30
2018-04-18T23:18:47.742Z,16.40
2018-04-18T23:23:48.746Z,16.20
2018-04-18T23:28:49.747Z,16.10
2018-04-18T23:33:50.737Z,16.20
2018-04-18T23:38:51.723Z,16.10
2018-04-18T23:43:52.701Z,15.70
2018-04-18T23:48:54.508Z,15.40
2018-04-18T23:53:55.502Z,15.40
2018-04-18T23:58:56.501Z,15.50
